createdAt,value
2022-11-22T00:00:54.055Z,0.00
2022-11-22T00:01:54.071Z,0.00
2022-11-22T00:02:54.075Z,0.00
2022-11-22T00:03:54.056Z,0.00
2022-11-22T00:04:54.033Z,0.00
2022-11-22T00:05:53.987Z,0.00
2022-11-22T00:06:53.975Z,0.00
2022-11-22T00:07:54.018Z,0.00
2022-11-22T00:08:53.960Z,0.00
2022-11-22T00:09:53.946Z,0.00
2022-11-22T00:10:53.941Z,0.00
2022-11-22T00:11:53.949Z,0.00
2022-11-22T00:12:53.959Z,0.00
2022-11-22T00:13:53.990Z,0.00
2022-11-22T00:14:56.868Z,0.00
2022-11-22T00:15:53.906Z,0.00
2022-11-22T00:16:53.879Z,0.00
2022-11-22T00:17:53.933Z,0.00
2022-11-22T00:18:53.890Z,0.00
2022-11-22T00:19:53.886Z,0.00
2022-11-22T00:20:53.854Z,0.00
2022-11-22T00:21:53.861Z,0.00
2022-11-22T00:22:53.844Z,0.00
2022-11-22T00:23:53.805Z,0.00
2022-11-22T00:24:53.810Z,0.00
2022-11-22T00:25:53.803Z,0.00
2022-11-22T00:26:53.781Z,0.00
2022-11-22T00:27:53.811Z,0.00
2022-11-22T00:28:53.769Z,0.00
2022-11-22T00:29:53.751Z,0.00
2022-11-22T00:30:53.741Z,0.00
2022-11-22T00:31:53.730Z,0.00
2022-11-22T00:32:53.757Z,0.00
2022-11-22T00:33:53.718Z,0.00
2022-11-22T00:34:53.711Z,0.00
2022-11-22T00:35:53.718Z,0.00
2022-11-22T00:36:53.693Z,0.00
2022-11-22T00:37:53.716Z,0.00
2022-11-22T00:38:53.660Z,0.00
2022-11-22T00:39:53.655Z,0.00
2022-11-22T00:40:53.649Z,0.00
2022-11-22T00:41:53.640Z,0.00
2022-11-22T00:42:53.659Z,0.00
2022-11-22T00:43:53.638Z,0.00
2022-11-22T00:44:53.603Z,0.00
2022-11-22T00:45:53.603Z,0.00
2022-11-22T00:46:53.591Z,0.00
2022-11-22T00:47:53.568Z,0.00
2022-11-22T00:48:53.621Z,0.00
2022-11-22T00:49:53.559Z,0.00
2022-11-22T00:50:53.557Z,0.00
2022-11-22T00:51:53.528Z,0.00
2022-11-22T00:52:53.547Z,0.00
2022-11-22T00:53:53.543Z,0.00
2022-11-22T00:54:55.160Z,0.00
2022-11-22T00:55:53.511Z,0.00
2022-11-22T00:56:53.516Z,0.00
2022-11-22T00:57:53.536Z,0.00
2022-11-22T00:58:53.535Z,0.00
2022-11-22T00:59:53.486Z,0.00
2022-11-22T01:00:56.541Z,0.00
2022-11-22T01:01:53.435Z,0.00
2022-11-22T01:02:53.445Z,0.00
2022-11-22T01:03:53.474Z,0.00
2022-11-22T01:04:53.435Z,0.00
2022-11-22T01:05:53.404Z,0.00
2022-11-22T01:06:53.390Z,0.00
2022-11-22T01:07:53.456Z,0.00
2022-11-22T01:08:53.387Z,0.00
2022-11-22T01:09:53.375Z,0.00
2022-11-22T01:10:53.386Z,0.00
2022-11-22T01:11:53.339Z,0.00
2022-11-22T01:12:53.323Z,0.00
2022-11-22T01:13:53.348Z,0.00
2022-11-22T01:14:53.333Z,0.00
2022-11-22T01:15:53.329Z,0.00
2022-11-22T01:16:53.343Z,0.00
2022-11-22T01:17:53.333Z,0.00
2022-11-22T01:18:53.256Z,0.00
2022-11-22T01:19:53.299Z,0.00
2022-11-22T01:20:53.246Z,0.00
2022-11-22T01:21:53.281Z,0.00
2022-11-22T01:22:53.227Z,0.00
2022-11-22T01:23:53.247Z,0.00
2022-11-22T01:24:53.226Z,0.00
2022-11-22T01:25:53.199Z,0.00
2022-11-22T01:26:53.254Z,0.00
2022-11-22T01:27:53.204Z,0.00
2022-11-22T01:28:53.155Z,0.00
2022-11-22T01:29:53.176Z,0.00
2022-11-22T01:30:53.135Z,0.00
2022-11-22T01:31:53.133Z,0.00
2022-11-22T01:32:53.144Z,0.00
2022-11-22T01:33:53.151Z,0.00
2022-11-22T01:34:53.151Z,0.00
2022-11-22T01:35:53.118Z,0.00
2022-11-22T01:36:53.078Z,0.00
2022-11-22T01:37:53.087Z,0.00
2022-11-22T01:38:53.079Z,0.00
2022-11-22T01:39:53.085Z,0.00
2022-11-22T01:40:53.056Z,0.00
2022-11-22T01:41:53.094Z,0.00
2022-11-22T01:42:53.057Z,0.00
2022-11-22T01:43:53.072Z,0.00
2022-11-22T01:44:53.023Z,0.00
2022-11-22T01:45:53.082Z,0.00
2022-11-22T01:46:53.010Z,0.00
2022-11-22T01:47:52.982Z,0.00
2022-11-22T01:48:52.986Z,0.00
2022-11-22T01:49:52.979Z,0.00
2022-11-22T01:50:52.958Z,0.00
2022-11-22T01:51:53.006Z,0.00
2022-11-22T01:52:52.970Z,0.00
2022-11-22T01:53:52.940Z,0.00
2022-11-22T01:54:52.952Z,0.00
2022-11-22T01:55:52.936Z,0.00
2022-11-22T01:56:52.896Z,0.00
2022-11-22T01:57:52.892Z,0.00
2022-11-22T01:58:52.857Z,0.00
2022-11-22T01:59:52.879Z,0.00
2022-11-22T02:00:52.926Z,0.00
2022-11-22T02:01:52.870Z,0.00
2022-11-22T02:02:52.831Z,0.00
2022-11-22T02:03:52.852Z,0.00
2022-11-22T02:04:52.830Z,0.00
2022-11-22T02:05:52.807Z,0.00
2022-11-22T02:06:52.867Z,0.00
2022-11-22T02:07:52.872Z,0.00
2022-11-22T02:08:52.777Z,0.00
2022-11-22T02:09:52.816Z,0.00
2022-11-22T02:10:52.781Z,0.00
2022-11-22T02:11:52.743Z,0.00
2022-11-22T02:12:52.757Z,0.00
2022-11-22T02:13:52.778Z,0.00
2022-11-22T02:14:52.746Z,0.00
2022-11-22T02:15:52.714Z,0.00
2022-11-22T02:16:52.692Z,0.00
2022-11-22T02:17:52.714Z,0.00
2022-11-22T02:18:52.680Z,0.00
2022-11-22T02:19:52.682Z,0.00
2022-11-22T02:20:52.730Z,0.00
2022-11-22T02:21:52.653Z,0.00
2022-11-22T02:22:52.630Z,0.00
2022-11-22T02:23:52.649Z,0.00
2022-11-22T02:24:52.646Z,0.00
2022-11-22T02:25:52.628Z,0.00
2022-11-22T02:26:52.694Z,0.00
2022-11-22T02:27:52.587Z,0.00
2022-11-22T02:28:52.617Z,0.00
2022-11-22T02:29:52.608Z,0.00
2022-11-22T02:30:52.561Z,0.00
2022-11-22T02:31:52.545Z,0.00
2022-11-22T02:32:52.562Z,0.00
2022-11-22T02:33:54.450Z,0.00
2022-11-22T02:34:52.556Z,0.00
2022-11-22T02:35:52.551Z,0.00
2022-11-22T02:36:52.512Z,0.00
2022-11-22T02:37:52.486Z,0.00
2022-11-22T02:38:52.484Z,0.00
2022-11-22T02:39:52.515Z,0.00
2022-11-22T02:40:52.483Z,0.00
2022-11-22T02:41:52.500Z,0.00
2022-11-22T02:42:52.482Z,0.00
2022-11-22T02:43:52.454Z,0.00
2022-11-22T02:44:52.420Z,0.00
2022-11-22T02:45:52.446Z,0.00
2022-11-22T02:46:52.401Z,0.00
2022-11-22T02:47:52.404Z,0.00
2022-11-22T02:48:52.432Z,0.00
2022-11-22T02:49:52.369Z,0.00
2022-11-22T02:50:52.381Z,0.00
2022-11-22T02:51:52.401Z,0.00
2022-11-22T02:52:52.395Z,0.00
2022-11-22T02:53:52.330Z,0.00
2022-11-22T02:54:52.333Z,0.00
2022-11-22T02:55:52.366Z,0.00
2022-11-22T02:56:52.334Z,0.00
2022-11-22T02:57:52.296Z,0.00
2022-11-22T02:58:52.280Z,0.00
2022-11-22T02:59:52.277Z,0.00
2022-11-22T03:00:52.361Z,0.00
2022-11-22T03:01:52.318Z,0.00
2022-11-22T03:02:52.258Z,0.00
2022-11-22T03:03:52.235Z,0.00
2022-11-22T03:04:52.284Z,0.00
2022-11-22T03:05:52.225Z,0.00
2022-11-22T03:06:52.230Z,0.00
2022-11-22T03:07:52.282Z,0.00
2022-11-22T03:08:56.350Z,0.00
2022-11-22T03:09:52.166Z,0.00
2022-11-22T03:10:52.173Z,0.00
2022-11-22T03:11:52.170Z,0.00
2022-11-22T03:12:52.174Z,0.00
2022-11-22T03:13:52.150Z,0.00
2022-11-22T03:14:52.157Z,0.00
2022-11-22T03:15:52.137Z,0.00
2022-11-22T03:16:52.104Z,0.00
2022-11-22T03:17:52.110Z,0.00
2022-11-22T03:18:52.137Z,0.00
2022-11-22T03:19:52.088Z,0.00
2022-11-22T03:20:52.118Z,0.00
2022-11-22T03:21:52.061Z,0.00
2022-11-22T03:22:52.052Z,0.00
2022-11-22T03:23:52.069Z,0.00
2022-11-22T03:24:52.026Z,0.00
2022-11-22T03:25:52.019Z,0.00
2022-11-22T03:26:52.028Z,0.00
2022-11-22T03:27:51.994Z,0.00
2022-11-22T03:28:52.036Z,0.00
2022-11-22T03:29:52.003Z,0.00
2022-11-22T03:30:51.988Z,0.00
2022-11-22T03:31:51.968Z,0.00
2022-11-22T03:32:51.989Z,0.00
2022-11-22T03:33:51.951Z,0.00
2022-11-22T03:34:51.963Z,0.00
2022-11-22T03:35:51.958Z,0.00
2022-11-22T03:36:51.928Z,0.00
2022-11-22T03:37:51.899Z,0.00
2022-11-22T03:38:51.888Z,0.00
2022-11-22T03:39:51.929Z,0.00
2022-11-22T03:40:51.887Z,0.00
2022-11-22T03:41:51.901Z,0.00
2022-11-22T03:42:51.899Z,0.00
2022-11-22T03:43:51.856Z,0.00
2022-11-22T03:44:51.876Z,0.00
2022-11-22T03:45:51.850Z,0.00
2022-11-22T03:46:51.850Z,0.00
2022-11-22T03:47:51.802Z,0.00
2022-11-22T03:48:51.888Z,0.00
2022-11-22T03:49:51.779Z,0.00
2022-11-22T03:50:51.809Z,0.00
2022-11-22T03:51:51.780Z,0.00
2022-11-22T03:52:51.758Z,0.00
2022-11-22T03:53:51.770Z,0.00
2022-11-22T03:54:51.730Z,0.00
2022-11-22T03:55:51.765Z,0.00
2022-11-22T03:56:51.745Z,0.00
2022-11-22T03:57:51.715Z,0.00
2022-11-22T03:58:51.753Z,0.00
2022-11-22T03:59:51.681Z,0.00
2022-11-22T04:00:51.688Z,0.00
2022-11-22T04:01:51.783Z,0.00
2022-11-22T04:02:51.688Z,0.00
2022-11-22T04:03:51.648Z,0.00
2022-11-22T04:04:51.664Z,0.00
2022-11-22T04:05:51.618Z,0.00
2022-11-22T04:06:51.894Z,0.00
2022-11-22T04:07:51.697Z,0.00
2022-11-22T04:08:51.699Z,0.00
2022-11-22T04:09:51.584Z,0.00
2022-11-22T04:10:51.552Z,1.00
2022-11-22T04:11:51.577Z,0.00
2022-11-22T04:12:51.590Z,0.00
2022-11-22T04:13:51.564Z,0.00
2022-11-22T04:14:51.541Z,0.00
2022-11-22T04:15:51.525Z,0.00
2022-11-22T04:16:51.522Z,0.00
2022-11-22T04:17:51.519Z,0.00
2022-11-22T04:18:51.550Z,0.00
2022-11-22T04:19:51.495Z,0.00
2022-11-22T04:20:51.574Z,0.00
2022-11-22T04:21:51.505Z,0.00
2022-11-22T04:22:51.483Z,0.00
2022-11-22T04:23:51.568Z,0.00
2022-11-22T04:24:51.493Z,0.00
2022-11-22T04:25:51.428Z,0.00
2022-11-22T04:26:51.448Z,0.00
2022-11-22T04:27:51.402Z,0.00
2022-11-22T04:29:09.215Z,0.00
2022-11-22T04:29:51.429Z,0.00
2022-11-22T04:30:51.377Z,0.00
2022-11-22T04:31:51.423Z,0.00
2022-11-22T04:32:51.320Z,1.00
2022-11-22T04:33:51.350Z,0.00
2022-11-22T04:34:51.351Z,0.00
2022-11-22T04:35:51.348Z,0.00
2022-11-22T04:36:51.367Z,0.00
2022-11-22T04:37:51.342Z,0.00
2022-11-22T04:38:51.308Z,0.00
2022-11-22T04:39:51.340Z,0.00
2022-11-22T04:40:51.286Z,0.00
2022-11-22T04:41:51.291Z,0.00
2022-11-22T04:42:51.289Z,0.00
2022-11-22T04:43:51.296Z,0.00
2022-11-22T04:44:51.247Z,0.00
2022-11-22T04:45:51.308Z,0.00
2022-11-22T04:46:51.230Z,0.00
2022-11-22T04:47:51.286Z,0.00
2022-11-22T04:48:51.228Z,0.00
2022-11-22T04:49:51.300Z,0.00
2022-11-22T04:50:51.246Z,0.00
2022-11-22T04:51:51.201Z,0.00
2022-11-22T04:52:51.171Z,0.00
2022-11-22T04:53:51.168Z,0.00
2022-11-22T04:54:51.165Z,0.00
2022-11-22T04:55:51.174Z,0.00
2022-11-22T04:56:51.136Z,0.00
2022-11-22T04:57:54.562Z,0.00
2022-11-22T04:58:51.135Z,0.00
2022-11-22T04:59:51.104Z,0.00
2022-11-22T05:00:51.155Z,0.00
2022-11-22T05:01:51.069Z,0.00
2022-11-22T05:02:51.087Z,0.00
2022-11-22T05:03:51.053Z,0.00
2022-11-22T05:04:51.066Z,0.00
2022-11-22T05:05:51.442Z,0.00
2022-11-22T05:06:51.046Z,0.00
2022-11-22T05:07:51.133Z,0.00
2022-11-22T05:08:51.033Z,0.00
2022-11-22T05:09:51.010Z,0.00
2022-11-22T05:10:51.014Z,0.00
2022-11-22T05:11:51.043Z,0.00
2022-11-22T05:12:50.976Z,0.00
2022-11-22T05:13:50.982Z,0.00
2022-11-22T05:14:50.951Z,0.00
2022-11-22T05:15:50.949Z,0.00
2022-11-22T05:16:50.953Z,0.00
2022-11-22T05:17:50.919Z,0.00
2022-11-22T05:18:50.949Z,0.00
2022-11-22T05:19:50.919Z,0.00
2022-11-22T05:20:50.960Z,0.00
2022-11-22T05:21:50.938Z,0.00
2022-11-22T05:22:50.846Z,1.00
2022-11-22T05:23:50.862Z,0.00
2022-11-22T05:24:50.867Z,0.00
2022-11-22T05:25:50.860Z,0.00
2022-11-22T05:26:50.851Z,0.00
2022-11-22T05:27:50.851Z,0.00
2022-11-22T05:28:51.366Z,0.00
2022-11-22T05:29:50.813Z,0.00
2022-11-22T05:30:50.850Z,0.00
2022-11-22T05:31:51.574Z,1.00
2022-11-22T05:32:50.884Z,0.00
2022-11-22T05:33:50.760Z,0.00
2022-11-22T05:34:50.758Z,0.00
2022-11-22T05:35:50.692Z,1.00
2022-11-22T05:36:50.780Z,0.00
2022-11-22T05:37:50.725Z,0.00
2022-11-22T05:38:50.676Z,1.00
2022-11-22T05:39:50.717Z,0.00
2022-11-22T05:40:50.719Z,0.00
2022-11-22T05:41:50.709Z,0.00
2022-11-22T05:42:50.697Z,0.00
2022-11-22T05:43:50.664Z,0.00
2022-11-22T05:44:50.685Z,0.00
2022-11-22T05:45:50.677Z,0.00
2022-11-22T05:46:50.663Z,0.00
2022-11-22T05:47:50.630Z,0.00
2022-11-22T05:48:50.617Z,0.00
2022-11-22T05:49:50.597Z,1.00
2022-11-22T05:50:50.679Z,0.00
2022-11-22T05:51:50.709Z,0.00
2022-11-22T05:52:50.676Z,0.00
2022-11-22T05:53:50.582Z,1.00
2022-11-22T05:54:51.348Z,0.00
2022-11-22T05:55:50.640Z,0.00
2022-11-22T05:56:50.593Z,0.00
2022-11-22T05:57:50.575Z,1.00
2022-11-22T05:58:51.358Z,0.00
2022-11-22T05:59:50.576Z,0.00
2022-11-22T06:00:50.508Z,0.00
2022-11-22T06:01:50.553Z,0.00
2022-11-22T06:02:50.567Z,0.00
2022-11-22T06:03:50.485Z,0.00
2022-11-22T06:04:50.477Z,0.00
2022-11-22T06:05:50.471Z,0.00
2022-11-22T06:06:50.488Z,1.00
2022-11-22T06:07:50.491Z,0.00
2022-11-22T06:08:50.440Z,0.00
2022-11-22T06:09:50.420Z,0.00
2022-11-22T06:10:50.464Z,0.00
2022-11-22T06:11:50.384Z,1.00
2022-11-22T06:12:50.404Z,0.00
2022-11-22T06:13:50.378Z,0.00
2022-11-22T06:14:50.336Z,1.00
2022-11-22T06:15:50.431Z,0.00
2022-11-22T06:16:50.286Z,1.00
2022-11-22T06:17:50.378Z,0.00
2022-11-22T06:18:50.356Z,0.00
2022-11-22T06:19:50.340Z,0.00
2022-11-22T06:20:50.333Z,0.00
2022-11-22T06:21:50.250Z,1.00
2022-11-22T06:22:50.233Z,1.00
2022-11-22T06:23:50.291Z,1.00
2022-11-22T06:24:50.253Z,1.00
2022-11-22T06:25:50.191Z,1.00
2022-11-22T06:26:50.193Z,1.00
2022-11-22T06:27:50.198Z,2.00
2022-11-22T06:28:50.271Z,0.00
2022-11-22T06:29:50.229Z,2.00
2022-11-22T06:30:50.166Z,1.00
2022-11-22T06:31:50.165Z,1.00
2022-11-22T06:32:50.205Z,1.00
2022-11-22T06:33:50.184Z,2.00
2022-11-22T06:34:50.144Z,1.00
2022-11-22T06:35:50.166Z,2.00
2022-11-22T06:36:50.128Z,5.00
2022-11-22T06:37:50.321Z,4.00
2022-11-22T06:38:50.114Z,4.00
2022-11-22T06:39:50.090Z,10.00
2022-11-22T06:40:50.066Z,8.00
2022-11-22T06:41:50.090Z,9.00
2022-11-22T06:42:50.128Z,8.00
2022-11-22T06:43:50.055Z,7.00
2022-11-22T06:44:50.049Z,6.00
2022-11-22T06:45:50.037Z,6.00
2022-11-22T06:46:49.997Z,5.00
2022-11-22T06:47:50.079Z,8.00
2022-11-22T06:48:50.095Z,6.00
2022-11-22T06:49:50.010Z,7.00
2022-11-22T06:50:49.944Z,11.00
2022-11-22T06:51:49.993Z,11.00
2022-11-22T06:52:50.005Z,19.00
2022-11-22T06:53:50.080Z,19.00
2022-11-22T06:54:49.959Z,17.00
2022-11-22T06:55:51.363Z,19.00
2022-11-22T06:56:49.888Z,19.00
2022-11-22T06:57:49.898Z,19.00
2022-11-22T06:58:49.925Z,18.00
2022-11-22T06:59:49.889Z,18.00
2022-11-22T07:00:49.893Z,17.00
2022-11-22T07:01:49.886Z,19.00
2022-11-22T07:02:49.877Z,20.00
2022-11-22T07:03:49.864Z,23.00
2022-11-22T07:05:17.317Z,31.00
2022-11-22T07:05:49.871Z,29.00
2022-11-22T07:06:49.874Z,36.00
2022-11-22T07:07:49.927Z,36.00
2022-11-22T07:08:49.799Z,35.00
2022-11-22T07:09:54.978Z,37.00
2022-11-22T07:10:49.842Z,41.00
2022-11-22T07:11:49.809Z,42.00
2022-11-22T07:12:49.753Z,48.00
2022-11-22T07:13:49.744Z,52.00
2022-11-22T07:14:49.766Z,48.00
2022-11-22T07:15:49.760Z,50.00
2022-11-22T07:16:49.711Z,49.00
2022-11-22T07:17:49.798Z,53.00
2022-11-22T07:18:49.688Z,50.00
2022-11-22T07:19:49.709Z,55.00
2022-11-22T07:20:49.757Z,56.00
2022-11-22T07:21:49.667Z,64.00
2022-11-22T07:22:49.649Z,66.00
2022-11-22T07:23:49.654Z,88.00
2022-11-22T07:24:49.647Z,103.00
2022-11-22T07:25:49.635Z,117.00
2022-11-22T07:26:49.652Z,113.00
2022-11-22T07:27:49.608Z,119.00
2022-11-22T07:28:49.584Z,130.00
2022-11-22T07:29:49.597Z,127.00
2022-11-22T07:30:49.549Z,138.00
2022-11-22T07:31:49.590Z,141.00
2022-11-22T07:32:49.555Z,153.00
2022-11-22T07:33:49.620Z,155.00
2022-11-22T07:34:49.522Z,163.00
2022-11-22T07:35:49.513Z,156.00
2022-11-22T07:36:53.103Z,154.00
2022-11-22T07:37:49.504Z,158.00
2022-11-22T07:38:49.507Z,144.00
2022-11-22T07:39:49.492Z,150.00
2022-11-22T07:40:49.487Z,139.00
2022-11-22T07:41:49.469Z,123.00
2022-11-22T07:42:51.982Z,118.00
2022-11-22T07:43:49.452Z,119.00
2022-11-22T07:44:49.435Z,123.00
2022-11-22T07:45:49.419Z,126.00
2022-11-22T07:46:49.424Z,128.00
2022-11-22T07:47:49.394Z,126.00
2022-11-22T07:48:49.396Z,127.00
2022-11-22T07:49:49.423Z,141.00
2022-11-22T07:50:49.386Z,157.00
2022-11-22T07:51:49.395Z,165.00
2022-11-22T07:52:49.377Z,192.00
2022-11-22T07:53:49.348Z,190.00
2022-11-22T07:54:49.322Z,192.00
2022-11-22T07:55:49.406Z,186.00
2022-11-22T07:56:49.328Z,186.00
2022-11-22T07:57:49.858Z,181.00
2022-11-22T07:58:49.298Z,180.00
2022-11-22T07:59:49.304Z,178.00
2022-11-22T08:00:49.431Z,180.00
2022-11-22T08:01:49.447Z,185.00
2022-11-22T08:02:49.846Z,186.00
2022-11-22T08:03:49.278Z,178.00
2022-11-22T08:04:49.254Z,174.00
2022-11-22T08:05:49.248Z,168.00
2022-11-22T08:06:49.250Z,156.00
2022-11-22T08:07:49.340Z,141.00
2022-11-22T08:08:49.251Z,141.00
2022-11-22T08:09:49.201Z,160.00
2022-11-22T08:10:49.174Z,154.00
2022-11-22T08:11:49.213Z,189.00
2022-11-22T08:12:50.109Z,215.00
2022-11-22T08:13:49.257Z,227.00
2022-11-22T08:14:49.159Z,226.00
2022-11-22T08:15:49.163Z,222.00
2022-11-22T08:16:49.132Z,226.00
2022-11-22T08:17:49.125Z,249.00
2022-11-22T08:18:49.125Z,275.00
2022-11-22T08:19:49.091Z,296.00
2022-11-22T08:20:49.100Z,321.00
2022-11-22T08:21:53.907Z,345.00
2022-11-22T08:22:49.113Z,369.00
2022-11-22T08:23:49.159Z,381.00
2022-11-22T08:24:49.147Z,386.00
2022-11-22T08:25:49.090Z,373.00
2022-11-22T08:26:49.032Z,377.00
2022-11-22T08:27:49.010Z,370.00
2022-11-22T08:28:50.892Z,380.00
2022-11-22T08:29:49.090Z,380.00
2022-11-22T08:30:48.969Z,381.00
2022-11-22T08:31:49.078Z,387.00
2022-11-22T08:32:49.088Z,389.00
2022-11-22T08:33:49.030Z,393.00
2022-11-22T08:34:49.025Z,394.00
2022-11-22T08:35:49.141Z,392.00
2022-11-22T08:36:48.979Z,379.00
2022-11-22T08:37:49.060Z,370.00
2022-11-22T08:38:49.038Z,367.00
2022-11-22T08:39:48.948Z,378.00
2022-11-22T08:40:48.910Z,390.00
2022-11-22T08:41:49.009Z,421.00
2022-11-22T08:42:48.913Z,452.00
2022-11-22T08:43:48.938Z,427.00
2022-11-22T08:44:48.880Z,479.00
2022-11-22T08:45:48.950Z,482.00
2022-11-22T08:46:48.919Z,484.00
2022-11-22T08:47:48.838Z,501.00
2022-11-22T08:48:49.030Z,503.00
2022-11-22T08:49:48.866Z,505.00
2022-11-22T08:50:48.828Z,507.00
2022-11-22T08:51:48.778Z,517.00
2022-11-22T08:52:48.860Z,522.00
2022-11-22T08:53:49.142Z,516.00
2022-11-22T08:54:48.779Z,520.00
2022-11-22T08:55:48.804Z,535.00
2022-11-22T08:56:48.799Z,532.00
2022-11-22T08:57:48.817Z,563.00
2022-11-22T08:58:48.852Z,553.00
2022-11-22T08:59:48.853Z,562.00
2022-11-22T09:00:48.939Z,584.00
2022-11-22T09:01:48.987Z,595.00
2022-11-22T09:02:48.850Z,605.00
2022-11-22T09:03:48.700Z,605.00
2022-11-22T09:04:48.677Z,588.00
2022-11-22T09:09:02.795Z,583.00
2022-11-22T09:09:50.805Z,614.00
2022-11-22T09:10:48.664Z,631.00
2022-11-22T09:11:48.660Z,681.00
2022-11-22T09:12:48.608Z,617.00
2022-11-22T09:13:48.651Z,706.00
2022-11-22T09:14:48.593Z,652.00
2022-11-22T09:15:48.778Z,665.00
2022-11-22T09:16:48.593Z,653.00
2022-11-22T09:17:48.694Z,681.00
2022-11-22T09:18:48.888Z,672.00
2022-11-22T09:19:48.753Z,652.00
2022-11-22T09:20:48.577Z,616.00
2022-11-22T09:21:48.504Z,586.00
2022-11-22T09:22:48.673Z,539.00
2022-11-22T09:23:48.456Z,469.00
2022-11-22T09:24:48.604Z,472.00
2022-11-22T09:25:48.608Z,486.00
2022-11-22T09:26:48.488Z,504.00
2022-11-22T09:27:48.466Z,698.00
2022-11-22T09:28:48.439Z,664.00
2022-11-22T09:29:49.448Z,802.00
2022-11-22T09:30:48.433Z,750.00
2022-11-22T09:31:48.395Z,897.00
2022-11-22T09:32:48.390Z,689.00
2022-11-22T09:33:49.382Z,844.00
2022-11-22T09:34:48.376Z,836.00
2022-11-22T09:35:48.499Z,864.00
2022-11-22T09:36:48.341Z,907.00
2022-11-22T09:37:48.320Z,859.00
2022-11-22T09:38:48.388Z,903.00
2022-11-22T09:39:48.809Z,854.00
2022-11-22T09:40:48.318Z,837.00
2022-11-22T09:41:48.497Z,803.00
2022-11-22T09:42:48.249Z,856.00
2022-11-22T09:43:48.321Z,802.00
2022-11-22T09:44:48.251Z,722.00
2022-11-22T09:45:48.586Z,870.00
2022-11-22T09:46:48.372Z,837.00
2022-11-22T09:47:48.909Z,855.00
2022-11-22T09:48:48.245Z,790.00
2022-11-22T09:49:48.701Z,775.00
2022-11-22T09:50:48.187Z,742.00
2022-11-22T09:51:48.271Z,641.00
2022-11-22T09:52:48.220Z,771.00
2022-11-22T09:53:48.281Z,777.00
2022-11-22T09:54:48.323Z,713.00
2022-11-22T09:55:48.172Z,726.00
2022-11-22T09:56:48.141Z,543.00
2022-11-22T09:57:48.451Z,824.00
2022-11-22T09:58:48.241Z,737.00
2022-11-22T09:59:48.091Z,1065.00
2022-11-22T10:00:52.222Z,832.00
2022-11-22T10:01:48.224Z,817.00
2022-11-22T10:02:59.840Z,769.00
2022-11-22T10:03:48.906Z,844.00
2022-11-22T10:04:48.100Z,817.00
2022-11-22T10:05:48.952Z,590.00
2022-11-22T10:06:48.066Z,704.00
2022-11-22T10:07:48.127Z,799.00
2022-11-22T10:08:48.913Z,813.00
2022-11-22T10:09:48.016Z,803.00
2022-11-22T10:10:48.108Z,621.00
2022-11-22T10:11:48.027Z,642.00
2022-11-22T10:12:48.028Z,988.00
2022-11-22T10:13:48.268Z,533.00
2022-11-22T10:14:48.046Z,833.00
2022-11-22T10:15:47.955Z,1239.00
2022-11-22T10:16:48.276Z,750.00
2022-11-22T10:17:47.973Z,746.00
2022-11-22T10:18:47.976Z,731.00
2022-11-22T10:19:47.962Z,669.00
2022-11-22T10:20:49.087Z,557.00
2022-11-22T10:21:47.991Z,520.00
2022-11-22T10:22:47.890Z,497.00
2022-11-22T10:23:47.894Z,549.00
2022-11-22T10:24:47.940Z,509.00
2022-11-22T10:25:47.928Z,492.00
2022-11-22T10:26:47.837Z,466.00
2022-11-22T10:27:47.861Z,440.00
2022-11-22T10:28:47.924Z,377.00
2022-11-22T10:29:47.862Z,408.00
2022-11-22T10:30:47.837Z,414.00
2022-11-22T10:31:47.834Z,393.00
2022-11-22T10:32:47.855Z,371.00
2022-11-22T10:33:47.770Z,381.00
2022-11-22T10:34:47.894Z,436.00
2022-11-22T10:35:47.771Z,451.00
2022-11-22T10:36:48.379Z,512.00
2022-11-22T10:37:47.768Z,518.00
2022-11-22T10:38:47.799Z,480.00
2022-11-22T10:39:47.778Z,425.00
2022-11-22T10:40:47.798Z,376.00
2022-11-22T10:41:47.720Z,427.00
2022-11-22T10:42:47.896Z,512.00
2022-11-22T10:43:47.862Z,594.00
2022-11-22T10:44:47.769Z,620.00
2022-11-22T10:45:47.762Z,607.00
2022-11-22T10:46:51.085Z,581.00
2022-11-22T10:47:47.920Z,613.00
2022-11-22T10:48:47.665Z,595.00
2022-11-22T10:49:47.599Z,629.00
2022-11-22T10:50:47.813Z,769.00
2022-11-22T10:51:47.662Z,775.00
2022-11-22T10:52:47.616Z,771.00
2022-11-22T10:53:47.672Z,765.00
2022-11-22T10:54:47.657Z,721.00
2022-11-22T10:55:47.570Z,776.00
2022-11-22T10:56:47.567Z,756.00
2022-11-22T10:57:47.621Z,806.00
2022-11-22T10:58:47.562Z,777.00
2022-11-22T10:59:47.568Z,733.00
2022-11-22T11:00:49.585Z,749.00
2022-11-22T11:01:47.495Z,739.00
2022-11-22T11:02:47.497Z,781.00
2022-11-22T11:03:47.579Z,763.00
2022-11-22T11:04:47.471Z,746.00
2022-11-22T11:06:21.029Z,799.00
2022-11-22T11:07:10.943Z,850.00
2022-11-22T11:07:47.511Z,931.00
2022-11-22T11:09:36.100Z,792.00
2022-11-22T11:10:10.350Z,763.00
2022-11-22T11:10:47.499Z,755.00
2022-11-22T11:11:47.436Z,734.00
2022-11-22T11:12:47.425Z,745.00
2022-11-22T11:13:47.404Z,784.00
2022-11-22T11:14:47.415Z,794.00
2022-11-22T11:15:51.377Z,826.00
2022-11-22T11:16:47.397Z,872.00
2022-11-22T11:17:47.361Z,812.00
2022-11-22T11:18:47.485Z,732.00
2022-11-22T11:19:47.354Z,723.00
2022-11-22T11:20:47.387Z,628.00
2022-11-22T11:21:47.684Z,551.00
2022-11-22T11:23:47.306Z,525.00
2022-11-22T11:24:47.277Z,544.00
2022-11-22T11:25:47.327Z,559.00
2022-11-22T11:26:47.240Z,599.00
2022-11-22T11:27:47.419Z,633.00
2022-11-22T11:28:47.303Z,637.00
2022-11-22T11:29:47.240Z,638.00
2022-11-22T11:30:47.230Z,696.00
2022-11-22T11:31:47.216Z,655.00
2022-11-22T11:32:47.233Z,551.00
2022-11-22T11:33:47.238Z,410.00
2022-11-22T11:34:47.203Z,406.00
2022-11-22T11:35:47.131Z,438.00
2022-11-22T11:36:47.240Z,568.00
2022-11-22T11:37:47.236Z,680.00
2022-11-22T11:38:47.124Z,725.00
2022-11-22T11:39:47.207Z,836.00
2022-11-22T11:40:47.112Z,986.00
2022-11-22T11:41:47.072Z,907.00
2022-11-22T11:42:47.161Z,856.00
2022-11-22T11:43:47.112Z,916.00
2022-11-22T11:44:47.078Z,924.00
2022-11-22T11:45:47.107Z,878.00
2022-11-22T11:46:47.347Z,871.00
2022-11-22T11:47:47.051Z,822.00
2022-11-22T11:48:47.022Z,758.00
2022-11-22T11:49:47.024Z,719.00
2022-11-22T11:50:47.446Z,600.00
2022-11-22T11:51:47.049Z,496.00
2022-11-22T11:52:47.033Z,601.00
2022-11-22T11:53:47.000Z,586.00
2022-11-22T11:54:46.996Z,614.00
2022-11-22T11:55:47.006Z,542.00
2022-11-22T11:56:46.943Z,439.00
2022-11-22T11:57:46.968Z,376.00
2022-11-22T11:58:46.915Z,348.00
2022-11-22T11:59:46.901Z,330.00
2022-11-22T12:00:46.946Z,328.00
2022-11-22T12:01:46.986Z,303.00
2022-11-22T12:02:47.010Z,296.00
2022-11-22T12:03:46.926Z,284.00
2022-11-22T12:04:46.951Z,315.00
2022-11-22T12:05:46.913Z,335.00
2022-11-22T12:06:46.849Z,460.00
2022-11-22T12:07:47.061Z,507.00
2022-11-22T12:08:46.849Z,505.00
2022-11-22T12:09:46.836Z,512.00
2022-11-22T12:10:46.778Z,577.00
2022-11-22T12:11:48.469Z,562.00
2022-11-22T12:12:46.777Z,594.00
2022-11-22T12:14:18.503Z,593.00
2022-11-22T12:15:09.670Z,573.00
2022-11-22T12:15:46.788Z,492.00
2022-11-22T12:16:46.785Z,435.00
2022-11-22T12:17:46.733Z,384.00
2022-11-22T12:18:46.742Z,377.00
2022-11-22T12:19:46.747Z,371.00
2022-11-22T12:20:47.138Z,389.00
2022-11-22T12:21:48.708Z,472.00
2022-11-22T12:22:50.343Z,486.00
2022-11-22T12:23:50.933Z,426.00
2022-11-22T12:48:29.786Z,435.00
2022-11-22T12:48:37.918Z,638.00
2022-11-22T12:49:35.992Z,416.00
2022-11-22T12:50:35.983Z,356.00
2022-11-22T12:51:35.916Z,308.00
2022-11-22T12:52:35.974Z,252.00
2022-11-22T12:53:36.002Z,289.00
2022-11-22T12:54:36.892Z,301.00
2022-11-22T12:55:35.906Z,308.00
2022-11-22T12:56:35.856Z,291.00
2022-11-22T12:57:35.910Z,261.00
2022-11-22T12:58:35.942Z,209.00
2022-11-22T12:59:35.841Z,224.00
2022-11-22T13:00:35.926Z,318.00
2022-11-22T13:01:35.872Z,357.00
2022-11-22T13:02:35.856Z,371.00
2022-11-22T13:03:35.907Z,348.00
2022-11-22T13:04:35.798Z,416.00
2022-11-22T13:05:35.842Z,422.00
2022-11-22T13:06:35.820Z,427.00
2022-11-22T13:07:35.948Z,376.00
2022-11-22T13:08:35.973Z,337.00
2022-11-22T13:09:35.749Z,350.00
2022-11-22T13:10:36.411Z,396.00
2022-11-22T13:11:35.822Z,466.00
2022-11-22T13:12:35.877Z,461.00
2022-11-22T13:13:35.820Z,436.00
2022-11-22T13:14:35.978Z,436.00
2022-11-22T13:15:35.717Z,476.00
2022-11-22T13:16:35.868Z,539.00
2022-11-22T13:17:35.774Z,613.00
2022-11-22T13:18:35.677Z,688.00
2022-11-22T13:19:35.640Z,708.00
2022-11-22T13:20:41.221Z,695.00
2022-11-22T13:21:35.634Z,710.00
2022-11-22T13:22:35.593Z,725.00